Terminal Aerodrome Forecast
Issued by NWS Shreveport, LA

Home | Current Version | Previous Version | Text Only | Print | Product List | Glossary On
Versions: 1 2 3 4 5 6 7 8 9 10 11 12 13 14 15
000
FTUS44 KSHV 260305 AAA
TAFELD
TAF AMD
KELD 260305Z 2603/2624 11006KT P6SM SKC
     FM261000 17006KT P6SM BKN015
     FM261600 17010KT P6SM BKN035
     FM262100 17011KT P6SM VCTS BKN050CB=

USA.gov is the U.S. government's official web portal to all federal, state and local government web resources and services.